1871 NOT_NAMED (1871001S12089)


IBTrACS version v04r00. Visit IBTrACS website for data access.
Please direct all questions to the IBTrACS Q and A forum

Storm track - Intensity - Wind Radii - Intensity Data - Source Data - All data

Summary Information

Storm ID 1871001S12089
Start Jan 1 06Z
End Jan 8 06Z
ATCF IDs
Track status Best track data.

Storm track plot

Map of storm track

Intensity plots

No Intensity information for this storm


Radial wind information

No radial wind information for this storm


Position and Intensity Table

BASIN ISO_TIME_________ NATURE LAT LON
degrees north degrees east
SI 1871-01-01 06:00:00 NR -11.60 88.50
SI 09:00:00 NR -11.63 88.44
SI 12:00:00 NR -11.67 88.37
SI 15:00:00 NR -11.71 88.30
SI 18:00:00 NR -11.75 88.21
SI 21:00:00 NR -11.82 88.10
SI 1871-01-02 00:00:00 NR -11.89 87.96
SI 03:00:00 NR -11.99 87.80
SI 06:00:00 NR -12.10 87.60
SI 09:00:00 NR -12.24 87.36
SI 12:00:00 NR -12.39 87.10
SI 15:00:00 NR -12.57 86.81
SI 18:00:00 NR -12.75 86.52
SI 21:00:00 NR -12.94 86.22
SI 1871-01-03 00:00:00 NR -13.13 85.92
SI 03:00:00 NR -13.32 85.65
SI 06:00:00 NR -13.50 85.40
SI 09:00:00 NR -13.66 85.21
SI 12:00:00 NR -13.81 85.03
SI 15:00:00 NR -13.97 84.88
SI 18:00:00 NR -14.11 84.74
SI 21:00:00 NR -14.26 84.62
SI 1871-01-04 00:00:00 NR -14.41 84.51
SI 03:00:00 NR -14.55 84.40
SI 06:00:00 NR -14.70 84.30
SI 09:00:00 NR -14.83 84.18
SI 12:00:00 NR -14.95 84.07
SI 15:00:00 NR -15.07 83.96
SI 18:00:00 NR -15.20 83.86
SI 21:00:00 NR -15.35 83.77
SI 1871-01-05 00:00:00 NR -15.51 83.67
SI 03:00:00 NR -15.69 83.58
SI 06:00:00 NR -15.90 83.50
SI 09:00:00 NR -16.15 83.40
SI 12:00:00 NR -16.43 83.31
SI 15:00:00 NR -16.73 83.22
SI 18:00:00 NR -17.05 83.14
SI 21:00:00 NR -17.38 83.07
SI 1871-01-06 00:00:00 NR -17.72 83.00
SI 03:00:00 NR -18.06 82.94
SI 06:00:00 NR -18.40 82.90
SI 09:00:00 NR -18.76 82.87
SI 12:00:00 NR -19.12 82.85
SI 15:00:00 NR -19.48 82.84
SI 18:00:00 NR -19.83 82.84
SI 21:00:00 NR -20.17 82.85
SI 1871-01-07 00:00:00 NR -20.48 82.86
SI 03:00:00 NR -20.76 82.88
SI 06:00:00 NR -21.00 82.90
SI 09:00:00 NR -21.19 82.92
SI 12:00:00 NR -21.34 82.95
SI 15:00:00 NR -21.46 82.97
SI 18:00:00 NR -21.54 83.00
SI 21:00:00 NR -21.60 83.02
SI 1871-01-08 00:00:00 NR -21.65 83.05
SI 03:00:00 NR -21.68 83.07
SI 06:00:00 NR -21.70 83.10

Source Information

Agency Information
USA
TOKYO
CMA
HKO
NEWDELHI
REUNION WMO-Best-Tracks.txt:Line=851:xxxx871125
BOM
NADI
WELLINGTON
DS824
TD9636
TD9635
NEUMANN
MLC

All available IBTrACS Data

SEASON BASIN SUBBASIN ISO_TIME_________ NATURE LAT LON DIST2LAND LANDFALL IFLAG USA SSHS REUNION LAT REUNION LON REUNION TYPE REUNION TNUM STORM SPEED STORM DIR
Year degrees north degrees east km km 1 degrees north degrees east 1 kts degrees
1871 SI MM 1871-01-01 06:00:00 NR -11.60 88.50 1596 1596 _____O________ -1 -11.60 88.50 99 9.90 1 243
1871 SI MM 09:00:00 NR -11.63 88.44 1604 1604 _____P________ -1 -11.63 88.44 99 1 243
1871 SI MM 12:00:00 NR -11.67 88.37 1612 1612 _____P________ -1 -11.67 88.37 99 2 242
1871 SI MM 15:00:00 NR -11.71 88.30 1620 1620 _____P________ -1 -11.71 88.30 99 2 241
1871 SI MM 18:00:00 NR -11.75 88.21 1635 1635 _____P________ -1 -11.75 88.21 99 2 241
1871 SI MM 21:00:00 NR -11.82 88.10 1643 1643 _____P________ -1 -11.82 88.10 99 3 240
1871 SI MM 1871-01-02 00:00:00 NR -11.89 87.96 1659 1659 _____P________ -1 -11.89 87.96 99 3 240
1871 SI MM 03:00:00 NR -11.99 87.80 1682 1682 _____P________ -1 -11.99 87.80 99 4 239
1871 SI MM 06:00:00 NR -12.10 87.60 1706 1706 _____O________ -1 -12.10 87.60 99 9.90 5 239
1871 SI MM 09:00:00 NR -12.24 87.36 1730 1730 _____P________ -1 -12.24 87.36 99 6 239
1871 SI MM 12:00:00 NR -12.39 87.10 1769 1769 _____P________ -1 -12.39 87.10 99 6 239
1871 SI MM 15:00:00 NR -12.57 86.81 1808 1808 _____P________ -1 -12.57 86.81 99 7 238
1871 SI MM 18:00:00 NR -12.75 86.52 1840 1840 _____P________ -1 -12.75 86.52 99 7 237
1871 SI MM 21:00:00 NR -12.94 86.22 1879 1879 _____P________ -1 -12.94 86.22 99 7 237
1871 SI MM 1871-01-03 00:00:00 NR -13.13 85.92 1918 1918 _____P________ -1 -13.13 85.92 99 7 235
1871 SI MM 03:00:00 NR -13.32 85.65 1958 1958 _____P________ -1 -13.32 85.65 99 6 234
1871 SI MM 06:00:00 NR -13.50 85.40 1989 1989 _____O________ -1 -13.50 85.40 99 9.90 6 232
1871 SI MM 09:00:00 NR -13.66 85.21 2020 2020 _____P________ -1 -13.66 85.21 99 5 229
1871 SI MM 12:00:00 NR -13.81 85.03 2043 2043 _____P________ -1 -13.81 85.03 99 4 226
1871 SI MM 15:00:00 NR -13.97 84.88 2066 2066 _____P________ -1 -13.97 84.88 99 4 223
1871 SI MM 18:00:00 NR -14.11 84.74 2090 2090 _____P________ -1 -14.11 84.74 99 4 220
1871 SI MM 21:00:00 NR -14.26 84.62 2113 2113 _____P________ -1 -14.26 84.62 99 4 218
1871 SI MM 1871-01-04 00:00:00 NR -14.41 84.51 2128 2128 _____P________ -1 -14.41 84.51 99 4 216
1871 SI MM 03:00:00 NR -14.55 84.40 2151 2151 _____P________ -1 -14.55 84.40 99 4 215
1871 SI MM 06:00:00 NR -14.70 84.30 2166 2166 _____O________ -1 -14.70 84.30 99 9.90 3 218
1871 SI MM 09:00:00 NR -14.83 84.18 2182 2182 _____P________ -1 -14.83 84.18 99 3 222
1871 SI MM 12:00:00 NR -14.95 84.07 2197 2197 _____P________ -1 -14.95 84.07 99 3 221
1871 SI MM 15:00:00 NR -15.07 83.96 2220 2220 _____P________ -1 -15.07 83.96 99 3 219
1871 SI MM 18:00:00 NR -15.20 83.86 2235 2235 _____P________ -1 -15.20 83.86 99 3 215
1871 SI MM 21:00:00 NR -15.35 83.77 2251 2251 _____P________ -1 -15.35 83.77 99 4 211
1871 SI MM 1871-01-05 00:00:00 NR -15.51 83.67 2274 2274 _____P________ -1 -15.51 83.67 99 4 206
1871 SI MM 03:00:00 NR -15.69 83.58 2297 2297 _____P________ -1 -15.69 83.58 99 4 203
1871 SI MM 06:00:00 NR -15.90 83.50 2319 2319 _____O________ -1 -15.90 83.50 99 9.90 5 201
1871 SI MM 09:00:00 NR -16.15 83.40 2350 2350 _____P________ -1 -16.15 83.40 99 6 199
1871 SI MM 12:00:00 NR -16.43 83.31 2373 2373 _____P________ -1 -16.43 83.31 99 6 197
1871 SI MM 15:00:00 NR -16.73 83.22 2403 2403 _____P________ -1 -16.73 83.22 99 6 195
1871 SI MM 18:00:00 NR -17.05 83.14 2434 2434 _____P________ -1 -17.05 83.14 99 7 193
1871 SI MM 21:00:00 NR -17.38 83.07 2465 2465 _____P________ -1 -17.38 83.07 99 7 192
1871 SI MM 1871-01-06 00:00:00 NR -17.72 83.00 2496 2496 _____P________ -1 -17.72 83.00 99 7 190
1871 SI MM 03:00:00 NR -18.06 82.94 2534 2534 _____P________ -1 -18.06 82.94 99 7 188
1871 SI MM 06:00:00 NR -18.40 82.90 2558 2558 _____O________ -1 -18.40 82.90 99 9.90 7 186
1871 SI MM 09:00:00 NR -18.76 82.87 2590 2590 _____P________ -1 -18.76 82.87 99 7 184
1871 SI MM 12:00:00 NR -19.12 82.85 2618 2612 _____P________ -1 -19.12 82.85 99 7 181
1871 SI MM 15:00:00 NR -19.48 82.84 2612 2609 _____P________ -1 -19.48 82.84 99 7 182
1871 SI MM 18:00:00 NR -19.83 82.84 2609 2605 _____P________ -1 -19.83 82.84 99 7 0
1871 SI MM 21:00:00 NR -20.17 82.85 2605 2605 _____P________ -1 -20.17 82.85 99 7 179
1871 SI MM 1871-01-07 00:00:00 NR -20.48 82.86 2613 2611 _____P________ -1 -20.48 82.86 99 6 176
1871 SI MM 03:00:00 NR -20.76 82.88 2610 2609 _____P________ -1 -20.76 82.88 99 5 176
1871 SI MM 06:00:00 NR -21.00 82.90 2609 2608 _____O________ -1 -21.00 82.90 99 9.90 4 175
1871 SI MM 09:00:00 NR -21.19 82.92 2608 2608 _____P________ -1 -21.19 82.92 99 3 175
1871 SI MM 12:00:00 NR -21.34 82.95 2608 2607 _____P________ -1 -21.34 82.95 99 3 171
1871 SI MM 15:00:00 NR -21.46 82.97 2617 2617 _____P________ -1 -21.46 82.97 99 2 171
1871 SI MM 18:00:00 NR -21.54 83.00 2617 2617 _____P________ -1 -21.54 83.00 99 2 168
1871 SI MM 21:00:00 NR -21.60 83.02 2617 2617 _____P________ -1 -21.60 83.02 99 1 157
1871 SI MM 1871-01-08 00:00:00 NR -21.65 83.05 2617 2617 _____P________ -1 -21.65 83.05 99 1 145
1871 SI MM 03:00:00 NR -21.68 83.07 2627 2627 _____P________ -1 -21.68 83.07 99 1 134
1871 SI MM 06:00:00 NR -21.70 83.10 2627 _____O________ -1 -21.70 83.10 99 9.90 1 0